Oldtown, Idaho
Current Conditions -  °F | °C
As of 7:55 AM on Friday 24 Oct 2014 (Local Time) from KSZT Reporting Station
Broken Clouds Broken Clouds  
Wind Chill: 43°   Ceiling: 11000
Heat Index: 43°   Visibility: 10mi
Dew Point: 43°   Wind: 3mph
Humidity: 100%   Direction: 180°S
Pressure: 30.08"   Gusts: NA
Location:  48.18°N, 117.04°W
Report Text: KSZT 241455Z AUTO 18003KT 10SM SCT095 BKN110 06/06 A3008 RMK AO2
Loading
Personal Weather Stations






























Interactive Weather Map
Tropical Storm Tracking
New forecast layout! Learn more

10-Day Weather Forecast

Advertisements
Track Severe Weather on mobile